Time;durP1;ratioP1;P1;durP2;ratioP2;P2;SDS_P1;SDS_P2;PMS_P1;PMS_P2;Temp;Humidity;BMP_temperature;BMP_pressure;BME280_temperature;BME280_humidity;BME280_pressure;Samples;Min_cycle;Max_cycle;Signal;HPM_P1;HPM_P2
2022/11/07 00:02:06;;;;;;;;;;;10.20;99.90;;;;;;4944760;28;20411;-78
2022/11/07 00:04:31;;;;;;;;;;;10.20;99.90;;;;;;4944481;28;19918;-76
2022/11/07 00:06:57;;;;;;;;;;;10.10;99.90;;;;;;4959782;28;20030;-78
2022/11/07 00:09:23;;;;;;;;;;;10.10;99.90;;;;;;4939212;28;19930;-76
2022/11/07 00:11:49;;;;;;;;;;;10.10;99.90;;;;;;4944384;28;20013;-76
2022/11/07 00:14:15;;;;;;;;;;;10.10;99.90;;;;;;4954658;28;19925;-77
2022/11/07 00:16:41;;;;;;;;;;;10.10;99.90;;;;;;4928292;28;19989;-77
2022/11/07 00:19:07;;;;;;;;;;;10.00;99.90;;;;;;4944796;28;19938;-76
2022/11/07 00:21:32;;;;;;;;;;;10.00;99.90;;;;;;4944271;28;19922;-79
2022/11/07 00:23:58;;;;;;;;;;;10.00;99.90;;;;;;4958765;28;19925;-76
2022/11/07 00:26:24;;;;;;;;;;;10.00;99.90;;;;;;4960031;28;19941;-77
2022/11/07 00:28:49;;;;;;;;;;;10.20;99.90;;;;;;4944485;28;19925;-76
2022/11/07 00:31:18;;;;;;;;;;;9.90;99.90;;;;;;4959935;28;19925;-78
2022/11/07 00:33:44;;;;;;;;;;;9.90;99.90;;;;;;4943087;28;19966;-78
2022/11/07 00:36:16;;;;;;;;;;;10.00;99.90;;;;;;4943961;28;19965;-76
2022/11/07 00:38:41;;;;;;;;;;;10.00;99.90;;;;;;4944291;28;19918;-78
2022/11/07 00:41:08;;;;;;;;;;;10.00;99.90;;;;;;4943703;28;20379;-77
2022/11/07 00:43:33;;;;;;;;;;;10.00;99.90;;;;;;4959301;28;20360;-75
2022/11/07 00:46:00;;;;;;;;;;;10.10;99.90;;;;;;4943771;28;20044;-76
2022/11/07 00:48:26;;;;;;;;;;;10.10;99.90;;;;;;4960031;28;20277;-77
2022/11/07 00:50:51;;;;;;;;;;;10.10;99.90;;;;;;4943518;28;19922;-78
2022/11/07 00:53:17;;;;;;;;;;;10.10;99.90;;;;;;4959545;28;19981;-76
2022/11/07 00:55:42;;;;;;;;;;;10.00;99.90;;;;;;4959860;28;19976;-77
2022/11/07 00:58:09;;;;;;;;;;;10.00;99.90;;;;;;4943480;28;20020;-77
2022/11/07 01:00:35;;;;;;;;;;;9.90;99.90;;;;;;4943530;28;19925;-77
2022/11/07 01:05:54;;;;;;;;;;;9.90;99.90;;;;;;4959588;28;19961;-78
2022/11/07 01:08:19;;;;;;;;;;;9.90;99.90;;;;;;4943078;28;19922;-77
2022/11/07 01:10:45;;;;;;;;;;;10.00;99.90;;;;;;4945619;28;19922;-77
2022/11/07 01:13:11;;;;;;;;;;;9.90;99.90;;;;;;4973479;28;19910;-78
2022/11/07 01:15:39;;;;;;;;;;;10.00;99.90;;;;;;4978329;28;19922;-77
2022/11/07 01:18:04;;;;;;;;;;;9.90;99.90;;;;;;4943200;28;19918;-77
2022/11/07 01:20:30;;;;;;;;;;;9.90;99.90;;;;;;4943522;28;19925;-77
2022/11/07 01:22:55;;;;;;;;;;;9.90;99.90;;;;;;4943039;28;20356;-78
2022/11/07 01:25:21;;;;;;;;;;;10.00;99.90;;;;;;4943466;28;19918;-78
2022/11/07 01:27:47;;;;;;;;;;;10.00;99.90;;;;;;4959017;28;19925;-78
2022/11/07 01:30:12;;;;;;;;;;;10.00;99.90;;;;;;4943022;28;19965;-77
2022/11/07 01:32:38;;;;;;;;;;;10.20;99.90;;;;;;4943662;28;19922;-76
2022/11/07 01:35:03;;;;;;;;;;;10.00;99.90;;;;;;4958614;28;19973;-77
2022/11/07 01:37:29;;;;;;;;;;;10.00;99.90;;;;;;4958685;28;19918;-77
2022/11/07 01:39:55;;;;;;;;;;;10.00;99.90;;;;;;4929629;29;19965;-77
2022/11/07 01:42:20;;;;;;;;;;;10.20;99.90;;;;;;4939926;29;19922;-76
2022/11/07 01:44:54;;;;;;;;;;;10.10;99.90;;;;;;4947652;28;19918;-76
2022/11/07 01:47:21;;;;;;;;;;;10.20;99.90;;;;;;4939345;29;19961;-78
2022/11/07 01:49:46;;;;;;;;;;;10.40;99.90;;;;;;4955343;29;20005;-76
2022/11/07 01:52:12;;;;;;;;;;;10.20;99.90;;;;;;4939506;29;20021;-75
2022/11/07 01:54:44;;;;;;;;;;;10.20;99.90;;;;;;4946205;28;19929;-77
2022/11/07 01:57:12;;;;;;;;;;;10.10;99.90;;;;;;4942693;28;19969;-77
2022/11/07 01:59:39;;;;;;;;;;;10.10;99.90;;;;;;4942332;28;20382;-77
2022/11/07 02:02:04;;;;;;;;;;;10.10;99.90;;;;;;4942573;28;19918;-77
2022/11/07 02:04:30;;;;;;;;;;;10.10;99.90;;;;;;4942204;28;20283;-76
2022/11/07 02:07:16;;;;;;;;;;;10.10;99.90;;;;;;4942198;28;19925;-78
2022/11/07 02:09:42;;;;;;;;;;;10.20;99.90;;;;;;4957356;28;19922;-77
2022/11/07 02:12:07;;;;;;;;;;;10.10;99.90;;;;;;4958369;28;20018;-80
2022/11/07 02:14:33;;;;;;;;;;;10.10;99.90;;;;;;4957756;28;19922;-78
2022/11/07 02:16:59;;;;;;;;;;;10.10;99.90;;;;;;4942704;28;20007;-75
2022/11/07 02:19:35;;;;;;;;;;;10.30;99.90;;;;;;4923635;29;20280;-75
2022/11/07 02:22:01;;;;;;;;;;;10.20;99.90;;;;;;4938982;29;19923;-76
2022/11/07 02:24:34;;;;;;;;;;;10.20;99.90;;;;;;4943439;28;20016;-76
2022/11/07 02:27:02;;;;;;;;;;;10.20;99.90;;;;;;4942528;28;19926;-76
2022/11/07 02:29:29;;;;;;;;;;;10.20;99.90;;;;;;4942418;28;19926;-78
2022/11/07 02:32:02;;;;;;;;;;;10.20;99.90;;;;;;4942364;28;19972;-76
2022/11/07 02:34:28;;;;;;;;;;;10.20;99.90;;;;;;4942065;28;19926;-76
2022/11/07 02:36:54;;;;;;;;;;;10.30;99.90;;;;;;4950363;28;19906;-77
2022/11/07 02:39:19;;;;;;;;;;;10.60;99.90;;;;;;4966726;28;19910;-76
2022/11/07 02:41:46;;;;;;;;;;;10.30;99.90;;;;;;4996683;28;19922;-73
2022/11/07 02:44:11;;;;;;;;;;;10.40;99.90;;;;;;4969614;28;19958;-73
2022/11/07 02:46:38;;;;;;;;;;;10.30;99.90;;;;;;4946743;28;19918;-75
2022/11/07 02:49:04;;;;;;;;;;;10.30;99.90;;;;;;4942010;28;19922;-74
2022/11/07 02:51:29;;;;;;;;;;;10.30;99.90;;;;;;4941569;28;20049;-76
2022/11/07 02:53:55;;;;;;;;;;;10.30;99.90;;;;;;4941157;28;20328;-77
2022/11/07 02:56:20;;;;;;;;;;;10.30;99.90;;;;;;4941302;28;19929;-74
2022/11/07 02:58:46;;;;;;;;;;;10.30;99.90;;;;;;4942023;28;19922;-76
2022/11/07 03:01:12;;;;;;;;;;;10.30;99.90;;;;;;4958100;28;19929;-76
2022/11/07 03:03:39;;;;;;;;;;;10.40;99.90;;;;;;4941620;28;20364;-76
2022/11/07 03:06:06;;;;;;;;;;;10.30;99.90;;;;;;4941389;28;20435;-77
2022/11/07 03:08:31;;;;;;;;;;;10.30;99.90;;;;;;4956951;28;19918;-76
2022/11/07 03:10:57;;;;;;;;;;;10.40;99.90;;;;;;4973363;28;19926;-76
2022/11/07 03:13:23;;;;;;;;;;;10.40;99.90;;;;;;4936826;29;19926;-73
2022/11/07 03:15:49;;;;;;;;;;;10.40;99.90;;;;;;4947504;28;19929;-73
2022/11/07 03:18:14;;;;;;;;;;;10.40;99.90;;;;;;4957538;28;19968;-75
2022/11/07 03:20:40;;;;;;;;;;;10.40;99.90;;;;;;4941786;28;19922;-75
2022/11/07 03:23:06;;;;;;;;;;;10.40;99.90;;;;;;4940917;28;19922;-75
2022/11/07 03:25:31;;;;;;;;;;;10.30;99.90;;;;;;4957341;28;19923;-75
2022/11/07 03:27:57;;;;;;;;;;;10.30;99.90;;;;;;4957060;28;20470;-75
2022/11/07 03:30:23;;;;;;;;;;;10.30;99.90;;;;;;4974591;28;19922;-78
2022/11/07 03:32:50;;;;;;;;;;;10.30;99.90;;;;;;4957133;28;20004;-74
2022/11/07 03:35:16;;;;;;;;;;;10.20;99.90;;;;;;4941902;28;20051;-76
2022/11/07 03:37:43;;;;;;;;;;;10.20;99.90;;;;;;4957911;28;20328;-77
2022/11/07 03:40:09;;;;;;;;;;;10.20;99.90;;;;;;4960929;28;19945;-77
2022/11/07 03:42:38;;;;;;;;;;;10.20;99.90;;;;;;4944183;28;19922;-76
2022/11/07 03:45:04;;;;;;;;;;;10.10;99.90;;;;;;4960257;28;19929;-75
2022/11/07 03:47:32;;;;;;;;;;;10.20;99.90;;;;;;4960369;28;19937;-77
2022/11/07 03:49:58;;;;;;;;;;;10.10;99.90;;;;;;4960519;28;19926;-74
2022/11/07 03:52:23;;;;;;;;;;;10.20;99.90;;;;;;4959425;28;19934;-75
2022/11/07 03:54:49;;;;;;;;;;;10.20;99.90;;;;;;4944741;28;19922;-74
2022/11/07 03:57:14;;;;;;;;;;;10.20;99.90;;;;;;4960270;28;19922;-75
2022/11/07 03:59:40;;;;;;;;;;;10.20;99.90;;;;;;4960709;28;19922;-75
2022/11/07 04:02:05;;;;;;;;;;;10.20;99.90;;;;;;4960651;28;19954;-76
2022/11/07 04:04:31;;;;;;;;;;;10.20;99.90;;;;;;4944786;28;19922;-76
2022/11/07 04:06:56;;;;;;;;;;;10.20;99.90;;;;;;4945950;28;19922;-75
2022/11/07 04:09:22;;;;;;;;;;;10.10;99.90;;;;;;4990063;28;19917;-76
2022/11/07 04:17:19;;;;;;;;;;;10.10;99.90;;;;;;4959866;28;19922;-76
2022/11/07 04:19:46;;;;;;;;;;;10.20;99.90;;;;;;4944071;28;19922;-76
2022/11/07 04:22:11;;;;;;;;;;;10.50;99.90;;;;;;4949328;28;20391;-75
2022/11/07 04:24:37;;;;;;;;;;;10.20;99.90;;;;;;4960958;28;19918;-76
2022/11/07 04:29:47;;;;;;;;;;;10.30;99.90;;;;;;4979381;28;19918;-76
2022/11/07 04:32:12;;;;;;;;;;;10.40;99.90;;;;;;4962870;28;19922;-76
2022/11/07 04:34:38;;;;;;;;;;;10.40;99.90;;;;;;4973119;28;19922;-78
2022/11/07 04:37:04;;;;;;;;;;;10.30;99.90;;;;;;4928614;28;19922;-76
2022/11/07 04:39:29;;;;;;;;;;;10.30;99.90;;;;;;4928666;28;19926;-77
2022/11/07 04:41:58;;;;;;;;;;;10.30;99.90;;;;;;4959815;28;19923;-77
2022/11/07 04:44:23;;;;;;;;;;;10.30;99.90;;;;;;4959423;28;19929;-78
2022/11/07 04:46:49;;;;;;;;;;;10.40;99.90;;;;;;4944131;28;19922;-77
2022/11/07 04:49:14;;;;;;;;;;;10.40;99.90;;;;;;4943110;28;19918;-76
2022/11/07 04:51:40;;;;;;;;;;;10.40;99.90;;;;;;4942961;28;19961;-75
2022/11/07 04:54:09;;;;;;;;;;;10.40;99.90;;;;;;4943461;28;20012;-77
2022/11/07 04:56:35;;;;;;;;;;;10.40;99.90;;;;;;4944130;28;19973;-80
2022/11/07 04:59:00;;;;;;;;;;;10.30;99.90;;;;;;4943878;28;19926;-77
2022/11/07 05:01:26;;;;;;;;;;;10.20;99.90;;;;;;4959511;28;19922;-76
2022/11/07 05:03:51;;;;;;;;;;;10.20;99.90;;;;;;4943942;28;19922;-78
2022/11/07 05:06:18;;;;;;;;;;;10.10;99.90;;;;;;4959301;28;19929;-79
2022/11/07 05:08:43;;;;;;;;;;;10.10;99.90;;;;;;4950820;28;19923;-76
2022/11/07 05:11:09;;;;;;;;;;;10.20;99.90;;;;;;4923720;29;20325;-79
2022/11/07 05:13:34;;;;;;;;;;;10.20;99.90;;;;;;4924202;29;19926;-76
2022/11/07 05:16:00;;;;;;;;;;;10.20;99.90;;;;;;4939167;29;19919;-77
2022/11/07 05:18:25;;;;;;;;;;;10.20;99.90;;;;;;4924105;29;20361;-78
2022/11/07 05:20:51;;;;;;;;;;;10.20;99.90;;;;;;4923726;29;19954;-78
2022/11/07 05:23:17;;;;;;;;;;;10.20;99.90;;;;;;4923443;29;20384;-79
2022/11/07 05:25:47;;;;;;;;;;;10.20;99.90;;;;;;4939722;29;19946;-75
2022/11/07 05:28:15;;;;;;;;;;;10.30;99.90;;;;;;4940359;29;19923;-76
2022/11/07 05:30:41;;;;;;;;;;;10.20;99.90;;;;;;4944078;29;19974;-77
2022/11/07 05:33:07;;;;;;;;;;;10.30;99.90;;;;;;4941760;29;19982;-76
2022/11/07 05:35:33;;;;;;;;;;;10.30;99.90;;;;;;4955350;28;19922;-76
2022/11/07 05:37:58;;;;;;;;;;;10.30;99.90;;;;;;4940117;29;19929;-78
2022/11/07 05:40:24;;;;;;;;;;;10.30;99.90;;;;;;4939729;29;19926;-78
2022/11/07 05:42:49;;;;;;;;;;;10.20;99.90;;;;;;4924073;29;19934;-76
2022/11/07 05:45:18;;;;;;;;;;;10.20;99.90;;;;;;4923179;29;19918;-76
2022/11/07 05:47:43;;;;;;;;;;;10.20;99.90;;;;;;4939327;29;19969;-78
2022/11/07 05:50:09;;;;;;;;;;;10.10;99.90;;;;;;4922941;29;19918;-76
2022/11/07 05:52:35;;;;;;;;;;;10.10;99.90;;;;;;4922913;29;19918;-77
2022/11/07 05:55:00;;;;;;;;;;;10.40;99.90;;;;;;4923491;29;19922;-75
2022/11/07 05:57:28;;;;;;;;;;;10.10;99.90;;;;;;4923772;29;19922;-77
2022/11/07 05:59:53;;;;;;;;;;;10.10;99.90;;;;;;4923837;29;19979;-77
2022/11/07 06:02:19;;;;;;;;;;;10.00;99.90;;;;;;4923109;29;19929;-76
2022/11/07 06:04:44;;;;;;;;;;;10.00;99.90;;;;;;4939242;29;19922;-77
2022/11/07 06:07:10;;;;;;;;;;;10.00;99.90;;;;;;4924743;29;19969;-77
2022/11/07 06:09:35;;;;;;;;;;;10.00;99.90;;;;;;4938268;28;19926;-77
2022/11/07 06:12:02;;;;;;;;;;;10.00;99.90;;;;;;4941253;28;19922;-78
2022/11/07 06:14:28;;;;;;;;;;;10.00;99.90;;;;;;4941944;28;19929;-78
2022/11/07 06:16:53;;;;;;;;;;;10.10;99.90;;;;;;4941739;28;20556;-77
2022/11/07 06:19:25;;;;;;;;;;;10.20;99.90;;;;;;4941657;28;19922;-82
2022/11/07 06:21:51;;;;;;;;;;;10.20;99.90;;;;;;4941949;28;19925;-76
2022/11/07 06:24:16;;;;;;;;;;;10.20;99.90;;;;;;4961696;28;19918;-76
2022/11/07 06:26:42;;;;;;;;;;;10.30;99.90;;;;;;4982744;28;19950;-76
2022/11/07 06:29:09;;;;;;;;;;;10.30;99.90;;;;;;4974872;28;19926;-77
2022/11/07 06:31:57;;;;;;;;;;;10.30;99.90;;;;;;4943500;28;19922;-83
2022/11/07 06:49:04;;;;;;;;;;;10.40;99.90;;;;;;4994357;28;19963;-80
2022/11/07 06:51:30;;;;;;;;;;;10.30;99.90;;;;;;4956563;28;19976;-77
2022/11/07 06:54:40;;;;;;;;;;;;;;;;;;;;;
2022/11/07 07:10:24;;;;;;;;;;;;;;;;;;;;;
2022/11/07 07:12:55;;;;;;;;;;;10.40;99.90;;;;;;4975138;28;19929;-78
2022/11/07 07:15:21;;;;;;;;;;;10.20;99.90;;;;;;4963699;28;19918;-77
2022/11/07 07:17:52;;;;;;;;;;;10.40;99.90;;;;;;4964681;28;19922;-83
2022/11/07 07:20:18;;;;;;;;;;;10.40;99.90;;;;;;4964027;28;20360;-78
2022/11/07 07:22:44;;;;;;;;;;;10.40;99.90;;;;;;4963898;28;19925;-80
2022/11/07 07:25:10;;;;;;;;;;;10.40;99.90;;;;;;4964283;28;19929;-78
2022/11/07 07:34:22;;;;;;;;;;;10.50;99.90;;;;;;4978056;28;19965;-79
2022/11/07 07:36:48;;;;;;;;;;;10.50;99.90;;;;;;4945138;28;19922;-78
2022/11/07 08:03:22;;;;;;;;;;;10.70;99.90;;;;;;5692486;22;19926;-84
2022/11/07 08:05:59;;;;;;;;;;;10.70;99.90;;;;;;4981824;28;19979;-79
2022/11/07 08:08:25;;;;;;;;;;;10.70;99.90;;;;;;4981746;28;19967;-80
2022/11/07 08:11:10;;;;;;;;;;;10.70;99.90;;;;;;4982562;28;20012;-81
2022/11/07 08:14:00;;;;;;;;;;;10.70;99.90;;;;;;4980440;28;19957;-83
2022/11/07 08:16:26;;;;;;;;;;;10.70;99.90;;;;;;4979859;28;19929;-79
2022/11/07 08:18:52;;;;;;;;;;;10.80;99.90;;;;;;4963053;28;19924;-84
2022/11/07 08:21:43;;;;;;;;;;;10.80;99.90;;;;;;4979322;28;19975;-78
2022/11/07 08:24:09;;;;;;;;;;;10.80;99.90;;;;;;4980935;28;19917;-81
2022/11/07 08:30:00;;;;;;;;;;;10.90;99.90;;;;;;4954821;29;20336;-82
2022/11/07 08:32:26;;;;;;;;;;;10.90;99.90;;;;;;4920374;29;19966;-77
2022/11/07 08:34:52;;;;;;;;;;;10.90;99.90;;;;;;4935693;29;20005;-80
2022/11/07 08:37:18;;;;;;;;;;;11.10;99.90;;;;;;4937880;29;19925;-82
2022/11/07 08:39:54;;;;;;;;;;;10.90;99.90;;;;;;4991593;28;19924;-80
2022/11/07 08:42:22;;;;;;;;;;;10.90;99.90;;;;;;4982247;28;20004;-80
2022/11/07 08:44:48;;;;;;;;;;;10.90;99.90;;;;;;4967437;28;20264;-77
2022/11/07 08:47:14;;;;;;;;;;;11.00;99.90;;;;;;4967406;28;19924;-77
2022/11/07 08:49:39;;;;;;;;;;;11.00;99.90;;;;;;4998795;28;19944;-78
2022/11/07 08:52:05;;;;;;;;;;;11.00;99.90;;;;;;5001611;28;19929;-79
2022/11/07 08:54:32;;;;;;;;;;;10.90;99.90;;;;;;4987656;28;19940;-78
2022/11/07 08:57:03;;;;;;;;;;;11.00;99.90;;;;;;4982193;28;19940;-79
2022/11/07 08:59:29;;;;;;;;;;;11.00;99.90;;;;;;4998326;28;19917;-78
2022/11/07 09:02:03;;;;;;;;;;;11.00;99.90;;;;;;4981004;28;19925;-77
2022/11/07 09:05:00;;;;;;;;;;;11.30;99.90;;;;;;4997031;28;20283;-83
2022/11/07 09:08:01;;;;;;;;;;;11.00;99.90;;;;;;4997907;28;19967;-82
2022/11/07 09:10:32;;;;;;;;;;;11.00;99.90;;;;;;4963108;28;20249;-82
2022/11/07 09:12:58;;;;;;;;;;;11.00;99.90;;;;;;4979214;28;19940;-78
2022/11/07 09:15:43;;;;;;;;;;;;;;;;;;;;;
2022/11/07 09:18:48;;;;;;;;;;;11.00;99.90;;;;;;4995538;28;20001;-76
2022/11/07 09:21:29;;;;;;;;;;;11.00;99.90;;;;;;4974037;28;19929;-79
2022/11/07 09:30:24;;;;;;;;;;;;;;;;;;;;;
2022/11/07 09:40:44;;;;;;;;;;;11.30;99.90;;;;;;4878957;29;19972;-84
2022/11/07 09:50:38;;;;;;;;;;;11.40;99.90;;;;;;4879811;29;19935;-85
2022/11/07 09:56:43;;;;;;;;;;;11.60;99.90;;;;;;4901670;29;20014;-81
2022/11/07 09:59:53;;;;;;;;;;;11.60;99.90;;;;;;4851264;29;19962;-80
2022/11/07 10:02:39;;;;;;;;;;;11.80;99.90;;;;;;4810768;29;20007;-74
2022/11/07 10:05:05;;;;;;;;;;;11.70;99.90;;;;;;4903146;29;19966;-76
2022/11/07 10:07:42;;;;;;;;;;;11.70;99.90;;;;;;4919201;29;19942;-77
2022/11/07 10:10:11;;;;;;;;;;;11.70;99.90;;;;;;4919012;29;20013;-74
2022/11/07 10:12:42;;;;;;;;;;;11.70;99.90;;;;;;4902594;29;20365;-77
2022/11/07 10:15:23;;;;;;;;;;;11.80;99.90;;;;;;4900024;29;19930;-77
2022/11/07 10:17:52;;;;;;;;;;;11.90;99.90;;;;;;4884525;29;19962;-79
2022/11/07 10:20:59;;;;;;;;;;;12.00;99.90;;;;;;4890958;29;19986;-77
2022/11/07 10:23:43;;;;;;;;;;;12.00;99.90;;;;;;4895166;29;19919;-77
2022/11/07 10:26:14;;;;;;;;;;;12.10;99.90;;;;;;4895585;29;20039;-78
2022/11/07 10:29:01;;;;;;;;;;;12.10;99.90;;;;;;4865636;29;19923;-83
2022/11/07 10:35:29;;;;;;;;;;;12.30;99.90;;;;;;4915244;29;19934;-81
2022/11/07 10:38:26;;;;;;;;;;;;;;;;;;;;;
2022/11/07 10:41:44;;;;;;;;;;;;;;;;;;;;;
2022/11/07 10:44:17;;;;;;;;;;;12.40;99.90;;;;;;4883628;29;19919;-82
2022/11/07 10:46:44;;;;;;;;;;;12.30;99.90;;;;;;4887801;28;19919;-77
2022/11/07 10:52:31;;;;;;;;;;;12.50;99.90;;;;;;4956267;28;19933;-80
